createdAt,value
2023-04-11T00:00:36.574Z,57.88
2023-04-11T00:03:03.395Z,57.96
2023-04-11T00:05:33.585Z,57.77
2023-04-11T00:08:00.696Z,57.80
2023-04-11T00:10:27.359Z,58.05
2023-04-11T00:12:56.699Z,57.85
2023-04-11T00:15:26.873Z,57.75
2023-04-11T00:17:55.135Z,57.81
2023-04-11T00:20:21.952Z,57.80
2023-04-11T00:22:48.696Z,57.71
2023-04-11T00:25:15.453Z,57.59
2023-04-11T00:27:41.949Z,57.62
2023-04-11T00:30:08.841Z,57.64
2023-04-11T00:32:35.420Z,57.32
2023-04-11T00:35:02.061Z,57.42
2023-04-11T00:37:28.550Z,57.38
2023-04-11T00:39:56.178Z,57.43
2023-04-11T00:42:23.065Z,57.24
2023-04-11T00:44:50.847Z,57.32
2023-04-11T00:47:18.294Z,57.32
2023-04-11T00:49:45.496Z,57.27
2023-04-11T00:52:13.730Z,57.15
2023-04-11T00:54:40.618Z,57.23
2023-04-11T00:57:07.938Z,57.17
2023-04-11T00:59:35.278Z,57.21
2023-04-11T01:02:02.195Z,56.97
2023-04-11T01:04:29.979Z,57.20
2023-04-11T01:07:04.064Z,57.25
2023-04-11T01:09:31.965Z,57.29
2023-04-11T01:11:59.425Z,57.13
2023-04-11T01:14:27.251Z,57.30
2023-04-11T01:16:56.379Z,57.05
2023-04-11T01:19:24.515Z,57.25
2023-04-11T01:21:52.198Z,57.39
2023-04-11T01:24:18.813Z,57.32
2023-04-11T01:26:46.274Z,57.22
2023-04-11T01:29:14.988Z,57.29
2023-04-11T01:31:41.742Z,57.15
2023-04-11T01:34:08.263Z,57.37
2023-04-11T01:36:34.903Z,57.35
2023-04-11T01:39:01.578Z,57.29
2023-04-11T01:41:29.514Z,57.30
2023-04-11T01:43:56.610Z,57.38
2023-04-11T01:46:24.606Z,57.49
2023-04-11T01:48:52.946Z,57.38
2023-04-11T01:51:19.805Z,57.77
2023-04-11T01:53:47.582Z,57.56
2023-04-11T01:56:14.830Z,57.46
2023-04-11T01:58:41.529Z,57.68
2023-04-11T02:01:08.289Z,57.74
2023-04-11T02:03:35.194Z,57.65
2023-04-11T02:06:02.084Z,57.62
2023-04-11T02:08:29.386Z,57.70
2023-04-11T02:10:55.903Z,57.64
2023-04-11T02:13:23.200Z,57.49
2023-04-11T02:15:49.759Z,57.65
2023-04-11T02:18:17.949Z,57.56
2023-04-11T02:20:44.471Z,57.60
2023-04-11T02:23:12.843Z,57.63
2023-04-11T02:25:39.514Z,57.59
2023-04-11T02:28:08.083Z,57.62
2023-04-11T02:30:34.933Z,57.58
2023-04-11T02:33:01.739Z,57.69
2023-04-11T02:35:28.400Z,57.71
2023-04-11T02:37:55.045Z,57.71
2023-04-11T02:40:23.056Z,57.89
2023-04-11T02:43:08.037Z,57.79
2023-04-11T02:45:34.668Z,57.92
2023-04-11T02:48:02.482Z,57.70
2023-04-11T02:50:30.900Z,57.80
2023-04-11T02:52:57.604Z,57.57
2023-04-11T02:55:27.457Z,57.69
2023-04-11T02:57:54.285Z,57.86
2023-04-11T03:00:22.193Z,57.80
2023-04-11T03:03:03.343Z,57.83
2023-04-11T03:05:35.960Z,57.82
2023-04-11T03:08:03.730Z,57.89
2023-04-11T03:10:31.859Z,57.99
2023-04-11T03:13:00.358Z,58.04
2023-04-11T03:15:28.021Z,57.84
2023-04-11T03:17:55.061Z,57.92
2023-04-11T03:20:24.008Z,57.92
2023-04-11T03:22:53.048Z,57.98
2023-04-11T03:25:20.121Z,58.06
2023-04-11T03:27:49.087Z,57.98
2023-04-11T03:30:16.021Z,57.91
2023-04-11T03:32:45.644Z,57.97
2023-04-11T03:35:12.235Z,57.93
2023-04-11T03:37:43.392Z,57.90
2023-04-11T03:40:10.420Z,57.95
2023-04-11T03:42:40.577Z,58.13
2023-04-11T03:45:10.791Z,57.97
2023-04-11T03:47:37.862Z,58.05
2023-04-11T03:50:04.825Z,58.00
2023-04-11T03:52:38.660Z,58.01
2023-04-11T03:55:12.331Z,58.21
2023-04-11T03:57:39.037Z,57.96
2023-04-11T04:00:07.016Z,58.15
2023-04-11T04:02:41.977Z,58.05
2023-04-11T04:05:12.288Z,58.07
2023-04-11T04:07:40.212Z,58.04
2023-04-11T04:10:18.520Z,58.00
2023-04-11T04:12:49.846Z,57.95
2023-04-11T04:15:19.790Z,58.11
2023-04-11T04:17:48.488Z,58.12
2023-04-11T04:20:22.885Z,58.09
2023-04-11T04:22:54.499Z,58.13
2023-04-11T04:25:30.259Z,58.28
2023-04-11T04:28:00.947Z,58.41
2023-04-11T04:30:38.007Z,58.43
2023-04-11T04:33:12.320Z,58.25
2023-04-11T04:35:43.224Z,58.22
2023-04-11T04:38:09.806Z,58.33
2023-04-11T04:40:44.030Z,58.43
2023-04-11T04:43:18.438Z,58.31
2023-04-11T04:45:58.629Z,58.19
2023-04-11T04:48:39.122Z,58.28
2023-04-11T04:51:06.962Z,58.28
2023-04-11T04:53:38.757Z,58.22
2023-04-11T04:56:07.570Z,58.22
2023-04-11T04:58:38.597Z,58.46
2023-04-11T05:01:09.284Z,58.37
2023-04-11T05:03:38.771Z,58.49
2023-04-11T05:06:10.237Z,58.30
2023-04-11T05:08:38.463Z,58.30
2023-04-11T05:11:07.186Z,58.28
2023-04-11T05:13:35.559Z,58.27
2023-04-11T05:16:04.382Z,58.33
2023-04-11T05:18:31.247Z,58.19
2023-04-11T05:20:58.179Z,58.37
2023-04-11T05:23:30.993Z,58.26
2023-04-11T05:26:01.268Z,58.09
2023-04-11T05:28:31.188Z,57.95
2023-04-11T05:30:58.281Z,57.92
2023-04-11T05:33:24.951Z,57.59
2023-04-11T05:35:52.046Z,57.04
2023-04-11T05:38:19.150Z,56.66
2023-04-11T05:40:45.954Z,56.52
2023-04-11T05:43:15.124Z,56.13
2023-04-11T05:45:42.658Z,56.16
2023-04-11T05:48:09.419Z,56.00
2023-04-11T05:50:36.445Z,55.98
2023-04-11T05:53:03.437Z,55.92
2023-04-11T05:55:30.141Z,55.95
2023-04-11T05:57:56.899Z,55.83
2023-04-11T06:00:24.671Z,55.68
2023-04-11T06:02:51.840Z,55.73
2023-04-11T06:05:20.829Z,55.62
2023-04-11T06:07:47.516Z,55.64
2023-04-11T06:10:14.145Z,54.99
2023-04-11T06:12:40.823Z,54.96
2023-04-11T06:15:09.206Z,54.97
2023-04-11T06:17:35.888Z,54.81
2023-04-11T06:20:05.494Z,54.79
2023-04-11T06:22:33.038Z,54.68
2023-04-11T06:24:59.838Z,54.81
2023-04-11T06:27:26.820Z,54.69
2023-04-11T06:29:53.504Z,54.64
2023-04-11T06:32:20.586Z,54.80
2023-04-11T06:34:47.348Z,54.65
2023-04-11T06:37:15.739Z,54.85
2023-04-11T06:39:42.395Z,54.86
2023-04-11T06:42:09.176Z,54.64
2023-04-11T06:44:36.043Z,54.60
2023-04-11T06:47:03.191Z,54.58
2023-04-11T06:49:29.880Z,54.63
2023-04-11T06:51:56.614Z,54.79
2023-04-11T06:54:23.757Z,54.55
2023-04-11T06:56:53.262Z,54.74
2023-04-11T06:59:20.558Z,54.37
2023-04-11T07:01:47.783Z,54.93
2023-04-11T07:04:14.400Z,55.81
2023-04-11T07:06:41.303Z,55.51
2023-04-11T07:09:09.608Z,55.59
2023-04-11T07:11:36.296Z,55.59
2023-04-11T07:14:03.198Z,55.06
2023-04-11T07:16:29.929Z,55.45
2023-04-11T07:18:56.726Z,55.32
2023-04-11T07:21:23.258Z,55.22
2023-04-11T07:23:49.853Z,55.03
2023-04-11T07:26:17.003Z,54.99
2023-04-11T07:28:45.166Z,54.83
2023-04-11T07:31:12.393Z,55.29
2023-04-11T07:33:39.092Z,54.84
2023-04-11T07:36:06.416Z,54.69
2023-04-11T07:38:33.450Z,54.77
2023-04-11T07:41:03.876Z,54.57
2023-04-11T07:43:30.565Z,54.90
2023-04-11T07:45:57.683Z,54.36
2023-04-11T07:48:25.674Z,54.21
2023-04-11T07:50:52.681Z,54.08
2023-04-11T07:53:19.246Z,54.38
2023-04-11T07:55:45.725Z,54.11
2023-04-11T07:58:12.219Z,54.13
2023-04-11T08:00:38.760Z,53.79
2023-04-11T08:03:06.128Z,53.98
2023-04-11T08:05:33.800Z,54.11
2023-04-11T08:08:00.996Z,54.19
2023-04-11T08:10:27.468Z,53.92
2023-04-11T08:12:54.949Z,53.53
2023-04-11T08:15:21.712Z,53.84
2023-04-11T08:17:49.853Z,54.26
2023-04-11T08:20:16.998Z,54.07
2023-04-11T08:22:47.038Z,54.06
2023-04-11T08:25:14.469Z,53.73
2023-04-11T08:27:41.421Z,54.18
2023-04-11T08:30:08.606Z,55.05
2023-04-11T08:32:35.888Z,54.34
2023-04-11T08:35:02.495Z,54.67
2023-04-11T08:37:29.898Z,54.48
2023-04-11T08:39:57.143Z,54.46
2023-04-11T08:42:27.849Z,54.81
2023-04-11T08:44:55.377Z,54.26
2023-04-11T08:47:22.509Z,54.00
2023-04-11T08:49:49.623Z,54.78
2023-04-11T08:52:16.782Z,54.29
2023-04-11T08:54:43.265Z,54.14
2023-04-11T08:57:09.950Z,54.15
2023-04-11T08:59:36.720Z,54.06
2023-04-11T09:02:09.230Z,54.16
2023-04-11T09:04:40.479Z,53.78
2023-04-11T09:07:07.513Z,53.41
2023-04-11T09:09:36.812Z,53.64
2023-04-11T09:12:04.278Z,53.36
2023-04-11T09:14:31.742Z,53.38
2023-04-11T09:16:59.309Z,53.30
2023-04-11T09:19:27.570Z,53.38
2023-04-11T09:21:54.983Z,53.36
2023-04-11T09:24:22.765Z,53.67
2023-04-11T09:26:49.611Z,53.39
2023-04-11T09:29:34.687Z,53.45
2023-04-11T09:32:01.413Z,53.18
2023-04-11T09:34:29.280Z,53.30
2023-04-11T09:36:56.163Z,53.35
2023-04-11T09:39:22.776Z,53.44
2023-04-11T09:41:49.579Z,53.27
2023-04-11T09:44:16.397Z,53.41
2023-04-11T09:46:56.517Z,53.50
2023-04-11T09:49:23.825Z,53.08
2023-04-11T09:51:53.240Z,53.33
2023-04-11T09:54:22.503Z,53.58
2023-04-11T09:56:49.212Z,53.50
2023-04-11T09:59:16.425Z,53.62
2023-04-11T10:01:43.917Z,53.76
2023-04-11T10:04:14.493Z,53.42
2023-04-11T10:06:50.429Z,53.77
2023-04-11T10:09:17.271Z,53.62
2023-04-11T10:11:50.580Z,53.39
2023-04-11T10:14:36.274Z,53.72
2023-04-11T10:17:14.839Z,53.36
2023-04-11T10:19:44.023Z,53.37
2023-04-11T10:22:11.798Z,53.26
2023-04-11T10:24:38.958Z,53.33
2023-04-11T10:27:05.560Z,53.32
2023-04-11T10:29:33.408Z,53.45
2023-04-11T10:32:13.262Z,53.37
2023-04-11T10:34:41.970Z,52.98
2023-04-11T10:37:09.534Z,52.98
2023-04-11T10:39:48.297Z,52.92
2023-04-11T10:42:27.147Z,52.78
2023-04-11T10:45:12.481Z,52.70
2023-04-11T10:47:39.134Z,52.95
2023-04-11T10:50:28.978Z,52.68
2023-04-11T10:52:56.645Z,52.57
2023-04-11T10:55:23.862Z,52.41
2023-04-11T10:58:09.316Z,52.17
2023-04-11T11:00:51.405Z,52.32
2023-04-11T11:03:18.289Z,52.68
2023-04-11T11:05:45.625Z,52.71
2023-04-11T11:08:12.412Z,52.88
2023-04-11T11:10:42.428Z,52.84
2023-04-11T11:13:09.409Z,52.97
2023-04-11T11:15:39.849Z,52.08
2023-04-11T11:18:10.072Z,51.84
2023-04-11T11:20:40.117Z,52.14
2023-04-11T11:23:08.137Z,51.92
2023-04-11T11:25:35.033Z,51.66
2023-04-11T11:28:05.634Z,52.00
2023-04-11T11:30:32.245Z,51.51
2023-04-11T11:32:58.931Z,51.85
2023-04-11T11:35:25.969Z,52.15
2023-04-11T11:37:53.977Z,51.85
2023-04-11T11:40:22.270Z,52.18
2023-04-11T11:42:52.185Z,52.00
2023-04-11T11:45:22.045Z,52.27
2023-04-11T11:47:49.848Z,52.32
2023-04-11T11:50:36.870Z,52.36
2023-04-11T11:53:14.169Z,52.01
2023-04-11T11:55:41.528Z,51.96
2023-04-11T11:58:08.378Z,52.53
2023-04-11T12:00:39.141Z,52.22
2023-04-11T12:03:06.700Z,52.18
2023-04-11T12:05:34.084Z,52.20
2023-04-11T12:08:02.105Z,52.22
2023-04-11T12:10:37.522Z,52.18
2023-04-11T12:13:11.315Z,52.34
2023-04-11T12:15:38.068Z,52.67
2023-04-11T12:18:06.031Z,52.36
2023-04-11T12:20:32.749Z,52.62
2023-04-11T12:22:59.360Z,52.61
2023-04-11T12:25:27.538Z,52.81
2023-04-11T12:27:54.303Z,52.82
2023-04-11T12:30:20.861Z,52.41
2023-04-11T12:32:47.456Z,52.77
2023-04-11T12:35:14.104Z,52.58
2023-04-11T12:37:41.224Z,52.71
2023-04-11T12:40:11.083Z,52.65
2023-04-11T12:42:55.288Z,52.53
2023-04-11T12:45:23.365Z,52.79
2023-04-11T12:47:49.917Z,52.76
2023-04-11T12:50:16.665Z,52.50
2023-04-11T12:52:43.463Z,52.65
2023-04-11T12:55:10.356Z,52.71
2023-04-11T12:57:36.966Z,52.61
2023-04-11T13:00:07.192Z,52.45
2023-04-11T13:02:42.143Z,52.79
2023-04-11T13:05:11.147Z,52.70
2023-04-11T13:07:37.928Z,52.43
2023-04-11T13:10:07.237Z,52.75
2023-04-11T13:12:39.585Z,52.75
2023-04-11T13:15:11.136Z,52.64
2023-04-11T13:17:37.739Z,52.46
2023-04-11T13:20:08.269Z,52.49
2023-04-11T13:22:34.957Z,53.72
2023-04-11T13:25:01.747Z,53.58
2023-04-11T13:27:28.608Z,53.18
2023-04-11T13:29:55.150Z,53.24
2023-04-11T13:32:21.701Z,53.08
2023-04-11T13:34:48.186Z,53.24
2023-04-11T13:37:14.729Z,53.50
2023-04-11T13:39:41.465Z,52.69
2023-04-11T13:42:08.026Z,52.42
2023-04-11T13:44:34.589Z,51.78
2023-04-11T13:47:02.829Z,52.06
2023-04-11T13:49:29.785Z,51.54
2023-04-11T13:51:56.393Z,51.38
2023-04-11T13:54:23.205Z,51.49
2023-04-11T13:56:49.772Z,50.83
2023-04-11T13:59:16.296Z,50.77
2023-04-11T14:01:43.034Z,50.92
2023-04-11T14:04:09.913Z,50.81
2023-04-11T14:06:37.633Z,50.78
2023-04-11T14:09:05.568Z,50.85
2023-04-11T14:11:32.182Z,50.49
2023-04-11T14:13:59.028Z,50.56
2023-04-11T14:16:25.735Z,51.00
2023-04-11T14:18:52.391Z,51.04
2023-04-11T14:21:19.116Z,50.85
2023-04-11T14:23:47.184Z,50.76
2023-04-11T14:26:13.806Z,50.67
2023-04-11T14:28:40.353Z,50.54
2023-04-11T14:31:07.108Z,50.55
2023-04-11T14:33:33.745Z,50.64
2023-04-11T14:36:00.781Z,50.48
2023-04-11T14:38:27.214Z,50.53
2023-04-11T14:40:53.688Z,50.36
2023-04-11T14:43:20.455Z,50.44
2023-04-11T14:45:47.666Z,50.33
2023-04-11T14:48:14.380Z,50.40
2023-04-11T14:50:40.980Z,50.32
2023-04-11T14:53:07.557Z,50.24
2023-04-11T14:55:34.126Z,50.68
2023-04-11T14:58:00.815Z,50.83
2023-04-11T15:00:27.283Z,50.74
2023-04-11T15:02:55.148Z,50.65
2023-04-11T15:05:23.128Z,50.67
2023-04-11T15:07:50.993Z,51.02
2023-04-11T15:10:18.884Z,50.84
2023-04-11T15:12:45.910Z,50.63
2023-04-11T15:15:12.907Z,50.50
2023-04-11T15:17:43.762Z,50.35
2023-04-11T15:20:11.820Z,50.52
2023-04-11T15:22:40.861Z,50.42
2023-04-11T15:25:08.568Z,50.54
2023-04-11T15:27:35.801Z,50.35
2023-04-11T15:30:04.501Z,50.37
2023-04-11T15:32:31.694Z,50.50
2023-04-11T15:34:58.666Z,50.79
2023-04-11T15:37:25.936Z,50.41
2023-04-11T15:39:52.725Z,50.31
2023-04-11T15:42:19.523Z,50.30
2023-04-11T15:44:46.131Z,50.48
2023-04-11T15:47:12.799Z,50.84
2023-04-11T15:49:39.887Z,50.56
2023-04-11T15:52:07.148Z,50.86
2023-04-11T15:54:33.730Z,50.86
2023-04-11T15:57:28.260Z,50.78
2023-04-11T15:59:54.757Z,50.89
2023-04-11T16:02:21.572Z,50.80
2023-04-11T16:04:50.053Z,50.79
2023-04-11T16:07:19.261Z,51.73
2023-04-11T16:09:46.595Z,52.48
2023-04-11T16:12:13.342Z,52.53
2023-04-11T16:14:39.895Z,52.78
2023-04-11T16:17:06.446Z,52.29
2023-04-11T16:19:33.301Z,52.00
2023-04-11T16:21:59.858Z,52.23
2023-04-11T16:24:28.318Z,51.85
2023-04-11T16:26:54.796Z,51.98
2023-04-11T16:29:21.450Z,52.01
2023-04-11T16:31:48.374Z,51.69
2023-04-11T16:34:15.327Z,51.77
2023-04-11T16:36:42.084Z,51.50
2023-04-11T16:39:08.804Z,51.60
2023-04-11T16:41:38.121Z,51.45
2023-04-11T16:44:11.483Z,51.37
2023-04-11T16:46:41.672Z,51.51
2023-04-11T16:49:08.660Z,51.77
2023-04-11T16:51:37.996Z,51.75
2023-04-11T16:54:09.449Z,51.77
2023-04-11T16:56:36.816Z,51.39
2023-04-11T16:59:04.129Z,51.71
2023-04-11T17:01:31.185Z,51.64
2023-04-11T17:03:58.119Z,51.52
2023-04-11T17:06:24.869Z,51.51
2023-04-11T17:08:51.439Z,51.53
2023-04-11T17:11:17.932Z,51.54
2023-04-11T17:13:45.813Z,51.72
2023-04-11T17:16:12.550Z,51.57
2023-04-11T17:18:39.893Z,51.75
2023-04-11T17:21:06.626Z,51.88
2023-04-11T17:23:42.522Z,51.52
2023-04-11T17:26:09.932Z,51.51
2023-04-11T17:28:36.830Z,51.63
2023-04-11T17:31:10.708Z,51.95
2023-04-11T17:33:37.301Z,51.81
2023-04-11T17:36:05.364Z,52.04
2023-04-11T17:38:32.391Z,52.11
2023-04-11T17:41:03.395Z,51.95
2023-04-11T17:43:39.967Z,51.85
2023-04-11T17:46:07.540Z,51.92
2023-04-11T17:48:34.227Z,52.33
2023-04-11T17:51:02.049Z,52.56
2023-04-11T17:53:28.748Z,52.19
2023-04-11T17:55:55.375Z,52.37
2023-04-11T17:58:22.632Z,52.43
2023-04-11T18:00:56.183Z,52.65
2023-04-11T18:03:25.694Z,52.62
2023-04-11T18:05:54.440Z,52.74
2023-04-11T18:08:26.051Z,52.89
2023-04-11T18:10:56.807Z,52.88
2023-04-11T18:13:23.453Z,52.96
2023-04-11T18:15:50.232Z,53.09
2023-04-11T18:18:16.867Z,53.06
2023-04-11T18:20:43.516Z,53.10
2023-04-11T18:23:10.071Z,53.22
2023-04-11T18:25:36.568Z,53.21
2023-04-11T18:28:03.406Z,53.04
2023-04-11T18:30:30.074Z,53.34
2023-04-11T18:32:56.650Z,53.36
2023-04-11T18:35:23.672Z,53.43
2023-04-11T18:37:50.290Z,53.40
2023-04-11T18:40:17.405Z,53.57
2023-04-11T18:42:46.403Z,53.64
2023-04-11T18:45:13.763Z,53.65
2023-04-11T18:47:41.821Z,53.45
2023-04-11T18:50:08.980Z,53.69
2023-04-11T18:52:35.612Z,53.73
2023-04-11T18:55:02.317Z,53.56
2023-04-11T18:57:33.089Z,53.84
2023-04-11T19:00:09.246Z,53.79
2023-04-11T19:02:38.717Z,53.94
2023-04-11T19:05:08.040Z,54.06
2023-04-11T19:07:34.917Z,53.91
2023-04-11T19:10:01.831Z,54.02
2023-04-11T19:12:28.587Z,54.09
2023-04-11T19:14:55.878Z,54.05
2023-04-11T19:17:22.372Z,54.37
2023-04-11T19:19:49.062Z,54.51
2023-04-11T19:22:16.006Z,54.57
2023-04-11T19:24:42.717Z,54.22
2023-04-11T19:27:09.247Z,54.24
2023-04-11T19:29:37.187Z,54.31
2023-04-11T19:32:04.386Z,54.29
2023-04-11T19:34:35.000Z,54.58
2023-04-11T19:37:01.811Z,54.52
2023-04-11T19:39:35.472Z,54.53
2023-04-11T19:42:02.625Z,54.54
2023-04-11T19:44:30.537Z,54.67
2023-04-11T19:46:57.051Z,54.90
2023-04-11T19:49:23.709Z,54.90
2023-04-11T19:51:50.901Z,54.74
2023-04-11T19:54:17.628Z,54.55
2023-04-11T19:56:49.177Z,54.87
2023-04-11T19:59:16.096Z,54.62
2023-04-11T20:01:43.045Z,54.64
2023-04-11T20:04:10.713Z,54.79
2023-04-11T20:06:37.375Z,54.81
2023-04-11T20:09:04.287Z,54.75
2023-04-11T20:11:33.061Z,54.76
2023-04-11T20:13:59.706Z,54.61
2023-04-11T20:16:26.551Z,54.77
2023-04-11T20:18:53.695Z,54.85
2023-04-11T20:21:20.564Z,54.63
2023-04-11T20:23:48.185Z,54.92
2023-04-11T20:26:14.955Z,55.05
2023-04-11T20:28:42.934Z,54.93
2023-04-11T20:31:09.667Z,54.88
2023-04-11T20:33:36.323Z,54.85
2023-04-11T20:36:03.392Z,54.84
2023-04-11T20:38:31.400Z,54.83
2023-04-11T20:40:57.995Z,54.47
2023-04-11T20:43:26.453Z,54.78
2023-04-11T20:45:53.435Z,54.97
2023-04-11T20:48:21.541Z,54.91
2023-04-11T20:50:48.490Z,55.00
2023-04-11T20:53:15.034Z,54.89
2023-04-11T20:55:41.889Z,54.83
2023-04-11T20:58:11.048Z,54.97
2023-04-11T21:00:39.791Z,54.97
2023-04-11T21:03:07.404Z,54.94
2023-04-11T21:05:34.929Z,54.96
2023-04-11T21:08:01.965Z,54.68
2023-04-11T21:10:28.639Z,54.81
2023-04-11T21:12:55.266Z,55.05
2023-04-11T21:15:22.023Z,54.58
2023-04-11T21:17:48.831Z,54.91
2023-04-11T21:20:18.765Z,54.89
2023-04-11T21:22:49.505Z,54.69
2023-04-11T21:25:16.309Z,54.80
2023-04-11T21:27:43.255Z,54.95
2023-04-11T21:30:10.123Z,54.92
2023-04-11T21:32:37.180Z,54.90
2023-04-11T21:35:10.155Z,54.91
2023-04-11T21:37:36.928Z,54.99
2023-04-11T21:40:03.770Z,54.85
2023-04-11T21:42:30.345Z,55.20
2023-04-11T21:44:56.935Z,54.86
2023-04-11T21:47:23.602Z,54.38
2023-04-11T21:49:50.549Z,54.25
2023-04-11T21:52:17.329Z,54.68
2023-04-11T21:54:44.099Z,54.84
2023-04-11T21:57:11.101Z,54.80
2023-04-11T21:59:38.476Z,54.96
2023-04-11T22:02:05.379Z,55.04
2023-04-11T22:07:01.297Z,55.01
2023-04-11T22:09:27.851Z,54.98
2023-04-11T22:11:54.586Z,54.98
2023-04-11T22:14:21.270Z,55.23
2023-04-11T22:16:51.108Z,55.34
2023-04-11T22:19:18.309Z,55.06
2023-04-11T22:21:55.710Z,55.43
2023-04-11T22:24:24.110Z,55.23
2023-04-11T22:26:53.824Z,55.27
2023-04-11T22:29:21.710Z,55.50
2023-04-11T22:31:50.436Z,55.68
2023-04-11T22:34:17.135Z,55.49
2023-04-11T22:36:43.806Z,55.50
2023-04-11T22:39:10.901Z,55.52
2023-04-11T22:41:38.687Z,55.42
2023-04-11T22:44:06.095Z,55.43
2023-04-11T22:46:38.644Z,55.92
2023-04-11T22:49:06.729Z,55.67
2023-04-11T22:51:33.530Z,56.05
2023-04-11T22:54:01.095Z,55.95
2023-04-11T22:56:27.865Z,56.06
2023-04-11T22:58:54.855Z,55.76
2023-04-11T23:01:22.343Z,55.71
2023-04-11T23:03:49.201Z,55.89
2023-04-11T23:06:15.848Z,56.19
2023-04-11T23:08:42.610Z,56.18
2023-04-11T23:11:09.163Z,56.09
2023-04-11T23:13:35.988Z,56.19
2023-04-11T23:16:02.586Z,56.39
2023-04-11T23:18:29.182Z,56.34
2023-04-11T23:20:55.872Z,56.46
2023-04-11T23:23:22.567Z,56.52
2023-04-11T23:25:49.759Z,56.47
2023-04-11T23:28:16.715Z,56.58
2023-04-11T23:30:44.248Z,56.57
2023-04-11T23:33:10.857Z,56.67
2023-04-11T23:35:37.810Z,56.78
2023-04-11T23:38:04.629Z,56.73
2023-04-11T23:40:31.877Z,56.84
2023-04-11T23:42:58.460Z,56.70
2023-04-11T23:45:25.372Z,57.00
2023-04-11T23:47:52.266Z,56.95
2023-04-11T23:50:19.192Z,56.99
2023-04-11T23:52:46.539Z,56.86
2023-04-11T23:55:13.228Z,57.01
2023-04-11T23:57:39.996Z,57.04
